Allyn, WA (98524)

2:31 PM PDT on July 29, 2016 (GMT -0700)
Happy Hollow Estates | | Change Station

Elev 203 ft 47.38 °N, 122.92 °W | Updated 13 seconds ago

Clear
Clear
88.5 °F
Feels Like 88 °F
N
5.4
Wind Variable Wind from North
Gusts 5.4 mph

Today
High -- | Low -- °F
--% Chance of Precip.
Yesterday
High -- | Low -- °F
Precip. -- in
Pressure 29.99 in
Visibility 10.0 miles
Clouds Clear
Heat Index 88 °F
Dew Point 60 °F
Humidity 39%
Rainfall 0.00 in
Snow Depth Not available.
5:46 AM 8:48 PM
Waning Crescent, 19% visible
METAR KPWT 292115Z AUTO 06006KT 10SM CLR 30/16 A2999 RMK AO1
Pressure 29.99 in
Visibility 10.0 miles
Clouds Clear
Heat Index 88 °F
Dew Point 60 °F
Humidity 39%
Rainfall 0.00 in
Snow Depth Not available.
5:46 AM 8:48 PM
Waning Crescent, 19% visible
METAR KPWT 292115Z AUTO 06006KT 10SM CLR 30/16 A2999 RMK AO1

10-Day Weather Forecast

Almanac

Astronomy

Jul. 29, 2016 Rise Set
Actual Time
Civil Twilight
Nautical Twilight
Astronomical Twilight
Moon
Length of Visible Light
Length of Day
Tomorrow will be .
, % of the Moon is Illuminated

Today's Extremes

State Highs State Lows

Community

WunderPhotos

Upload Photos

1,928,423 photos uploaded!

WunderBlog® & News

Nearby

Air Quality

  Air Quality AQ Index Pollutant
Not available.

Snow Depth

Station Depth Elevation

Earthquake Activity

City Distance Mag. Time & Date
Minimum magnitude displayed is 2.5.

Coastal Water Temperatures

Place Temperature

Stations

Nearby Weather Stations

Station Location Temp. Windchill Dew Point Humidity Wind Precip. Elev Updated Type
                   

Watches & Warnings

There are currently no watches in effect.